createdAt,value
2019-06-07T00:00:39.922Z,100.00
2019-06-07T00:03:10.714Z,100.00
2019-06-07T00:05:37.832Z,100.00
2019-06-07T00:08:10.836Z,100.00
2019-06-07T00:10:37.295Z,100.00
2019-06-07T00:13:06.896Z,100.00
2019-06-07T00:15:35.393Z,100.00
2019-06-07T00:18:03.843Z,100.00
2019-06-07T00:20:33.070Z,100.00
2019-06-07T00:23:01.411Z,100.00
2019-06-07T00:25:29.829Z,100.00
2019-06-07T00:27:58.209Z,100.00
2019-06-07T00:30:42.348Z,100.00
2019-06-07T00:32:57.730Z,100.00
2019-06-07T00:35:26.148Z,100.00
2019-06-07T00:37:54.486Z,100.00
2019-06-07T00:40:31.344Z,100.00
2019-06-07T00:42:53.090Z,100.00
2019-06-07T00:45:23.971Z,100.00
2019-06-07T00:47:51.577Z,100.00
2019-06-07T00:50:23.947Z,100.00
2019-06-07T00:55:27.058Z,100.00
2019-06-07T00:57:50.870Z,100.00
2019-06-07T01:00:23.565Z,100.00
2019-06-07T01:02:50.848Z,100.00
2019-06-07T01:05:22.590Z,100.00
2019-06-07T01:07:49.175Z,100.00
2019-06-07T01:10:46.038Z,100.00
2019-06-07T01:12:47.944Z,100.00
2019-06-07T01:15:18.190Z,100.00
2019-06-07T01:18:25.882Z,100.00
2019-06-07T01:20:21.181Z,100.00
2019-06-07T01:22:47.581Z,100.00
2019-06-07T01:25:18.331Z,100.00
2019-06-07T01:27:46.802Z,100.00
2019-06-07T01:30:16.190Z,100.00
2019-06-07T01:32:44.704Z,100.00
2019-06-07T01:35:13.114Z,100.00
2019-06-07T01:37:41.451Z,100.00
2019-06-07T01:40:10.015Z,100.00
2019-06-07T01:42:38.362Z,100.00
2019-06-07T01:45:08.585Z,100.00
2019-06-07T01:47:36.954Z,100.00
2019-06-07T01:50:08.209Z,100.00
2019-06-07T01:52:36.614Z,100.00
2019-06-07T01:55:06.545Z,100.00
2019-06-07T01:57:47.691Z,100.00
2019-06-07T02:00:06.578Z,100.00
2019-06-07T02:02:35.253Z,100.00
2019-06-07T02:05:04.763Z,100.00
2019-06-07T02:07:33.458Z,100.00
2019-06-07T02:10:01.798Z,100.00
2019-06-07T02:12:40.323Z,100.00
2019-06-07T02:15:00.326Z,100.00
2019-06-07T02:17:30.941Z,100.00
2019-06-07T02:19:58.777Z,100.00
2019-06-07T02:22:29.464Z,100.00
2019-06-07T02:25:34.379Z,100.00
2019-06-07T02:27:27.542Z,100.00
2019-06-07T02:29:56.320Z,100.00
2019-06-07T02:32:28.853Z,100.00
2019-06-07T02:34:54.697Z,100.00
2019-06-07T02:37:26.399Z,100.00
2019-06-07T02:39:53.270Z,100.00
2019-06-07T02:42:26.150Z,100.00
2019-06-07T02:44:51.599Z,100.00
2019-06-07T02:47:20.027Z,100.00
2019-06-07T02:49:48.323Z,100.00
2019-06-07T02:52:16.727Z,100.00
2019-06-07T02:54:45.040Z,100.00
2019-06-07T02:57:13.354Z,100.00
2019-06-07T03:00:05.203Z,100.00
2019-06-07T03:02:11.754Z,100.00
2019-06-07T03:04:43.940Z,100.00
2019-06-07T03:07:10.990Z,100.00
2019-06-07T03:09:39.966Z,100.00
2019-06-07T03:12:08.589Z,100.00
2019-06-07T03:14:36.887Z,100.00
2019-06-07T03:17:10.061Z,100.00
2019-06-07T03:19:40.134Z,100.00
2019-06-07T03:22:08.498Z,100.00
2019-06-07T03:24:41.126Z,100.00
2019-06-07T03:29:36.951Z,100.00
2019-06-07T03:32:05.296Z,100.00
2019-06-07T03:34:39.272Z,100.00
2019-06-07T03:37:03.645Z,100.00
2019-06-07T03:39:33.763Z,100.00
2019-06-07T03:42:06.485Z,100.00
2019-06-07T03:44:37.806Z,100.00
2019-06-07T03:47:05.531Z,100.00
2019-06-07T03:49:37.475Z,100.00
2019-06-07T03:52:04.005Z,100.00
2019-06-07T03:54:34.856Z,100.00
2019-06-07T03:57:02.316Z,100.00
2019-06-07T03:59:35.547Z,100.00
2019-06-07T04:02:00.652Z,100.00
2019-06-07T04:04:29.789Z,100.00
2019-06-07T04:06:58.290Z,100.00
2019-06-07T04:09:28.591Z,100.00
2019-06-07T04:11:56.818Z,100.00
2019-06-07T04:14:25.171Z,100.00
2019-06-07T04:16:53.493Z,100.00
2019-06-07T04:19:21.781Z,100.00
2019-06-07T04:21:51.024Z,100.00
2019-06-07T04:24:19.304Z,100.00
2019-06-07T04:26:48.261Z,100.00
2019-06-07T04:29:37.990Z,100.00
2019-06-07T04:31:46.700Z,100.00
2019-06-07T04:34:15.008Z,100.00
2019-06-07T04:36:56.683Z,100.00
2019-06-07T04:39:13.771Z,100.00
2019-06-07T04:41:42.114Z,100.00
2019-06-07T04:44:10.401Z,100.00
2019-06-07T04:46:42.163Z,100.00
2019-06-07T04:49:09.066Z,100.00
2019-06-07T04:51:42.083Z,100.00
2019-06-07T04:54:07.399Z,100.00
2019-06-07T04:56:38.517Z,100.00
2019-06-07T04:59:06.019Z,100.00
2019-06-07T05:01:36.760Z,100.00
2019-06-07T05:04:04.630Z,100.00
2019-06-07T05:06:36.319Z,100.00
2019-06-07T05:09:03.144Z,100.00
2019-06-07T05:11:32.062Z,100.00
2019-06-07T05:14:01.554Z,100.00
2019-06-07T05:16:30.500Z,100.00
2019-06-07T05:19:00.046Z,100.00
2019-06-07T05:21:49.369Z,100.00
2019-06-07T05:24:09.280Z,100.00
2019-06-07T05:26:30.406Z,100.00
2019-06-07T05:28:58.670Z,100.00
2019-06-07T05:31:27.055Z,100.00
2019-06-07T05:33:55.625Z,100.00
2019-06-07T05:36:24.103Z,100.00
2019-06-07T05:38:52.472Z,100.00
2019-06-07T05:41:20.867Z,100.00
2019-06-07T05:44:09.120Z,100.00
2019-06-07T05:46:19.322Z,100.00
2019-06-07T05:48:47.665Z,100.00
2019-06-07T05:51:16.015Z,100.00
2019-06-07T05:53:46.011Z,100.00
2019-06-07T05:56:15.390Z,100.00
2019-06-07T05:58:44.745Z,100.00
2019-06-07T06:01:42.136Z,100.00
2019-06-07T06:03:46.441Z,100.00
2019-06-07T06:06:13.348Z,100.00
2019-06-07T06:08:42.532Z,100.00
2019-06-07T06:11:12.477Z,100.00
2019-06-07T06:14:01.555Z,100.00
2019-06-07T06:16:10.815Z,100.00
2019-06-07T06:18:40.729Z,100.00
2019-06-07T06:21:18.924Z,100.00
2019-06-07T06:23:42.422Z,100.00
2019-06-07T06:26:09.750Z,100.00
2019-06-07T06:28:38.348Z,100.00
2019-06-07T06:31:06.775Z,100.00
2019-06-07T06:33:35.196Z,100.00
2019-06-07T06:36:03.531Z,100.00
2019-06-07T06:38:31.854Z,100.00
2019-06-07T06:41:15.487Z,100.00
2019-06-07T06:43:30.783Z,100.00
2019-06-07T06:45:59.105Z,100.00
2019-06-07T06:48:27.476Z,100.00
2019-06-07T06:50:55.861Z,100.00
2019-06-07T06:53:24.338Z,100.00
2019-06-07T06:55:52.758Z,100.00
2019-06-07T06:58:21.094Z,99.63
2019-06-07T07:01:04.871Z,100.00
2019-06-07T07:03:54.210Z,97.34
2019-06-07T07:05:54.415Z,95.84
2019-06-07T07:08:21.309Z,95.34
2019-06-07T07:10:53.205Z,91.77
2019-06-07T07:13:19.906Z,92.20
2019-06-07T07:15:55.083Z,91.41
2019-06-07T07:18:18.329Z,91.31
2019-06-07T07:20:48.344Z,88.16
2019-06-07T07:23:17.387Z,87.59
2019-06-07T07:25:51.070Z,86.33
2019-06-07T07:28:15.891Z,86.54
2019-06-07T07:30:47.287Z,84.39
2019-06-07T07:33:16.851Z,85.79
2019-06-07T07:36:08.104Z,84.79
2019-06-07T07:38:15.250Z,84.72
2019-06-07T07:43:13.554Z,82.99
2019-06-07T07:45:41.965Z,84.64
2019-06-07T07:48:17.561Z,83.38
2019-06-07T07:50:41.358Z,82.87
2019-06-07T07:53:09.808Z,80.67
2019-06-07T07:55:38.185Z,77.53
2019-06-07T07:58:06.475Z,77.43
2019-06-07T08:00:52.547Z,77.07
2019-06-07T08:03:04.866Z,76.55
2019-06-07T08:05:42.634Z,75.18
2019-06-07T08:08:04.961Z,75.16
2019-06-07T08:10:33.183Z,76.27
2019-06-07T08:13:22.721Z,74.67
2019-06-07T08:15:31.538Z,74.81
2019-06-07T08:18:03.934Z,73.70
2019-06-07T08:20:29.906Z,73.14
2019-06-07T08:23:00.900Z,72.13
2019-06-07T08:25:29.135Z,72.67
2019-06-07T08:27:58.989Z,72.35
2019-06-07T08:33:12.058Z,73.74
2019-06-07T08:36:03.634Z,73.75
2019-06-07T08:40:27.873Z,74.86
2019-06-07T08:43:18.332Z,74.45
2019-06-07T08:45:26.357Z,73.24
2019-06-07T08:47:58.014Z,73.31
2019-06-07T08:50:24.701Z,73.32
2019-06-07T08:52:59.434Z,73.60
2019-06-07T08:55:23.256Z,74.20
2019-06-07T08:57:54.521Z,72.76
2019-06-07T09:00:45.337Z,73.10
2019-06-07T09:02:54.966Z,72.54
2019-06-07T09:05:23.111Z,72.57
2019-06-07T09:08:12.995Z,74.04
2019-06-07T09:10:21.397Z,73.54
2019-06-07T09:12:49.721Z,71.67
2019-06-07T09:15:23.425Z,70.55
2019-06-07T09:18:30.519Z,71.22
2019-06-07T09:20:35.568Z,68.79
2019-06-07T09:22:48.197Z,69.10
2019-06-07T09:25:21.242Z,68.15
2019-06-07T09:27:46.623Z,66.33
2019-06-07T09:30:18.990Z,64.90
2019-06-07T09:32:46.583Z,66.44
2019-06-07T09:35:17.500Z,65.39
2019-06-07T09:40:27.094Z,63.79
2019-06-07T09:42:48.640Z,64.46
2019-06-07T09:45:16.944Z,64.46
2019-06-07T09:47:45.336Z,64.60
2019-06-07T09:50:13.612Z,64.96
2019-06-07T09:52:57.697Z,63.19
2019-06-07T09:55:22.930Z,60.25
2019-06-07T09:57:42.340Z,59.87
2019-06-07T10:00:39.282Z,59.37
2019-06-07T10:02:45.437Z,59.13
2019-06-07T10:05:14.593Z,59.57
2019-06-07T10:08:00.084Z,60.92
2019-06-07T10:12:45.271Z,58.52
2019-06-07T10:15:13.571Z,57.05
2019-06-07T10:17:41.857Z,56.66
2019-06-07T10:20:10.233Z,55.18
2019-06-07T10:22:38.573Z,53.49
2019-06-07T10:25:08.315Z,55.49
2019-06-07T10:27:36.984Z,52.35
2019-06-07T10:30:08.381Z,53.36
2019-06-07T10:32:36.728Z,52.60
2019-06-07T10:35:10.170Z,50.47
2019-06-07T10:37:38.463Z,51.36
2019-06-07T10:40:09.307Z,49.65
2019-06-07T10:42:37.697Z,48.98
2019-06-07T10:45:08.262Z,47.40
2019-06-07T10:47:36.791Z,47.50
2019-06-07T10:50:05.967Z,47.00
2019-06-07T10:52:34.525Z,47.11
2019-06-07T10:55:03.001Z,46.82
2019-06-07T10:57:31.287Z,48.34
2019-06-07T10:59:59.796Z,47.55
2019-06-07T11:02:28.143Z,46.67
2019-06-07T11:04:56.513Z,46.48
2019-06-07T11:07:24.850Z,46.49
2019-06-07T11:10:06.250Z,46.38
2019-06-07T11:12:23.336Z,47.91
2019-06-07T11:14:51.673Z,46.79
2019-06-07T11:17:19.958Z,47.12
2019-06-07T11:19:48.979Z,47.13
2019-06-07T11:22:18.557Z,47.40
2019-06-07T11:24:47.234Z,47.81
2019-06-07T11:27:16.415Z,49.24
2019-06-07T11:29:45.806Z,47.23
2019-06-07T11:32:14.632Z,46.88
2019-06-07T11:34:43.015Z,46.62
2019-06-07T11:37:12.037Z,45.59
2019-06-07T11:39:41.439Z,45.06
2019-06-07T11:42:09.963Z,45.09
2019-06-07T11:44:53.202Z,44.23
2019-06-07T11:47:08.477Z,44.95
2019-06-07T11:49:36.754Z,45.79
2019-06-07T11:52:05.058Z,45.80
2019-06-07T11:54:33.461Z,45.16
2019-06-07T11:57:01.761Z,44.39
2019-06-07T11:59:30.075Z,43.42
2019-06-07T12:01:58.555Z,45.97
2019-06-07T12:04:34.529Z,46.44
2019-06-07T12:06:57.010Z,45.37
2019-06-07T12:09:28.063Z,46.14
2019-06-07T12:11:55.273Z,42.84
2019-06-07T12:14:23.638Z,43.41
2019-06-07T12:16:51.952Z,42.32
2019-06-07T12:19:20.587Z,42.05
2019-06-07T12:21:49.010Z,41.71
2019-06-07T12:24:19.390Z,40.81
2019-06-07T12:26:47.365Z,40.34
2019-06-07T12:29:17.185Z,40.69
2019-06-07T12:31:45.597Z,41.11
2019-06-07T12:34:13.869Z,41.76
2019-06-07T12:36:43.837Z,40.78
2019-06-07T12:39:12.168Z,41.59
2019-06-07T12:41:40.439Z,40.63
2019-06-07T12:44:08.881Z,41.38
2019-06-07T12:46:37.135Z,42.07
2019-06-07T12:49:05.414Z,41.24
2019-06-07T12:51:33.818Z,40.78
2019-06-07T12:54:02.146Z,40.05
2019-06-07T12:56:30.426Z,39.37
2019-06-07T12:58:58.754Z,39.02
2019-06-07T13:01:27.166Z,40.14
2019-06-07T13:03:55.451Z,40.49
2019-06-07T13:06:23.781Z,40.81
2019-06-07T13:08:52.035Z,41.03
2019-06-07T13:11:26.158Z,40.70
2019-06-07T13:13:50.578Z,39.98
2019-06-07T13:16:19.982Z,40.17
2019-06-07T13:18:48.346Z,41.11
2019-06-07T13:21:18.219Z,41.84
2019-06-07T13:23:46.618Z,40.39
2019-06-07T13:26:16.749Z,40.15
2019-06-07T13:28:45.044Z,39.98
2019-06-07T13:31:13.363Z,40.27
2019-06-07T13:33:41.699Z,39.27
2019-06-07T13:36:10.120Z,39.82
2019-06-07T13:38:38.407Z,39.76
2019-06-07T13:41:06.723Z,39.61
2019-06-07T13:43:35.033Z,40.18
2019-06-07T13:46:03.336Z,39.75
2019-06-07T13:48:32.784Z,39.65
2019-06-07T13:51:01.172Z,39.12
2019-06-07T13:53:29.501Z,39.50
2019-06-07T13:55:57.929Z,40.42
2019-06-07T13:58:26.716Z,40.60
2019-06-07T14:00:54.993Z,39.62
2019-06-07T14:03:28.348Z,39.20
2019-06-07T14:05:53.330Z,38.99
2019-06-07T14:08:23.158Z,39.12
2019-06-07T14:10:51.578Z,38.88
2019-06-07T14:13:19.941Z,38.90
2019-06-07T14:15:48.379Z,38.85
2019-06-07T14:18:16.664Z,39.56
2019-06-07T14:20:44.953Z,39.49
2019-06-07T14:23:13.371Z,39.88
2019-06-07T14:25:41.784Z,39.63
2019-06-07T14:28:11.973Z,40.25
2019-06-07T14:30:40.561Z,40.48
2019-06-07T14:33:08.887Z,41.43
2019-06-07T14:35:37.307Z,41.79
2019-06-07T14:38:05.604Z,41.03
2019-06-07T14:40:34.159Z,41.15
2019-06-07T14:43:02.654Z,40.44
2019-06-07T14:45:32.796Z,38.57
2019-06-07T14:48:01.066Z,39.33
2019-06-07T14:50:30.250Z,37.97
2019-06-07T14:52:58.728Z,37.86
2019-06-07T14:55:27.113Z,38.02
2019-06-07T14:57:55.520Z,37.23
2019-06-07T15:00:41.159Z,37.16
2019-06-07T15:03:09.893Z,37.25
2019-06-07T15:05:40.480Z,36.40
2019-06-07T15:08:08.374Z,36.66
2019-06-07T15:10:36.767Z,38.33
2019-06-07T15:13:05.129Z,38.69
2019-06-07T15:15:34.591Z,38.90
2019-06-07T15:18:03.071Z,37.75
2019-06-07T15:20:32.188Z,38.03
2019-06-07T15:23:00.570Z,38.19
2019-06-07T15:25:29.208Z,38.47
2019-06-07T15:27:57.556Z,38.70
2019-06-07T15:30:25.908Z,39.26
2019-06-07T15:32:54.285Z,39.53
2019-06-07T15:35:22.776Z,40.09
2019-06-07T15:37:51.058Z,40.68
2019-06-07T15:40:19.479Z,40.88
2019-06-07T15:42:52.842Z,40.59
2019-06-07T15:45:18.508Z,40.40
2019-06-07T15:47:46.873Z,41.02
2019-06-07T15:50:15.270Z,40.91
2019-06-07T15:52:43.574Z,41.16
2019-06-07T15:55:12.002Z,41.53
2019-06-07T15:57:42.056Z,41.88
2019-06-07T16:00:19.519Z,42.38
2019-06-07T16:02:47.960Z,41.93
2019-06-07T16:05:16.441Z,42.07
2019-06-07T16:07:44.967Z,42.22
2019-06-07T16:10:14.805Z,42.01
2019-06-07T16:12:59.250Z,42.17
2019-06-07T16:15:13.895Z,42.54
2019-06-07T16:17:43.775Z,42.96
2019-06-07T16:20:13.367Z,42.40
2019-06-07T16:22:42.067Z,41.96
2019-06-07T16:25:10.655Z,42.26
2019-06-07T16:27:40.462Z,41.64
2019-06-07T16:30:10.071Z,42.13
2019-06-07T16:32:39.345Z,43.10
2019-06-07T16:35:08.323Z,42.97
2019-06-07T16:37:38.193Z,43.28
2019-06-07T16:40:07.793Z,43.58
2019-06-07T16:42:36.363Z,44.21
2019-06-07T16:45:11.350Z,43.71
2019-06-07T16:47:42.394Z,43.80
2019-06-07T16:50:10.459Z,43.56
2019-06-07T16:52:39.177Z,44.56
2019-06-07T16:55:08.306Z,44.43
2019-06-07T16:57:36.759Z,45.03
2019-06-07T17:00:13.303Z,44.99
2019-06-07T17:02:42.211Z,45.52
2019-06-07T17:05:10.806Z,45.09
2019-06-07T17:07:40.230Z,46.33
2019-06-07T17:10:09.143Z,47.86
2019-06-07T17:12:38.519Z,50.11
2019-06-07T17:15:07.693Z,52.01
2019-06-07T17:17:36.014Z,52.39
2019-06-07T17:20:06.022Z,55.41
2019-06-07T17:22:34.302Z,56.67
2019-06-07T17:25:02.658Z,58.86
2019-06-07T17:27:31.108Z,60.75
2019-06-07T17:29:59.540Z,61.15
2019-06-07T17:32:27.821Z,61.55
2019-06-07T17:34:56.101Z,63.63
2019-06-07T17:37:25.225Z,63.97
2019-06-07T17:39:53.513Z,66.29
2019-06-07T17:42:21.823Z,78.03
2019-06-07T17:44:51.355Z,82.91
2019-06-07T17:47:19.797Z,88.32
2019-06-07T17:49:48.220Z,89.92
2019-06-07T17:52:16.577Z,90.66
2019-06-07T17:54:45.924Z,94.63
2019-06-07T17:57:14.342Z,96.22
2019-06-07T17:59:42.696Z,98.98
2019-06-07T18:02:15.378Z,100.00
2019-06-07T18:04:43.050Z,100.00
2019-06-07T18:07:11.883Z,100.00
2019-06-07T18:09:40.165Z,100.00
2019-06-07T18:12:08.607Z,100.00
2019-06-07T18:14:36.988Z,100.00
2019-06-07T18:17:05.403Z,100.00
2019-06-07T18:19:33.786Z,100.00
2019-06-07T18:22:02.099Z,100.00
2019-06-07T18:24:30.394Z,100.00
2019-06-07T18:26:58.953Z,100.00
2019-06-07T18:29:27.219Z,100.00
2019-06-07T18:31:55.514Z,100.00
2019-06-07T18:34:23.933Z,100.00
2019-06-07T18:36:53.139Z,100.00
2019-06-07T18:39:21.704Z,100.00
2019-06-07T18:41:51.817Z,100.00
2019-06-07T18:44:21.877Z,100.00
2019-06-07T18:46:50.179Z,100.00
2019-06-07T18:49:18.485Z,100.00
2019-06-07T18:51:49.651Z,100.00
2019-06-07T18:54:18.087Z,100.00
2019-06-07T18:56:47.064Z,100.00
2019-06-07T18:59:15.391Z,100.00
2019-06-07T19:01:43.672Z,100.00
2019-06-07T19:04:12.866Z,100.00
2019-06-07T19:06:41.187Z,100.00
2019-06-07T19:09:09.607Z,100.00
2019-06-07T19:11:37.901Z,100.00
2019-06-07T19:14:06.183Z,100.00
2019-06-07T19:16:35.165Z,100.00
2019-06-07T19:19:03.756Z,100.00
2019-06-07T19:21:32.491Z,100.00
2019-06-07T19:24:00.871Z,100.00
2019-06-07T19:26:29.159Z,100.00
2019-06-07T19:28:57.468Z,100.00
2019-06-07T19:31:25.756Z,100.00
2019-06-07T19:33:55.104Z,100.00
2019-06-07T19:36:23.438Z,100.00
2019-06-07T19:38:51.840Z,100.00
2019-06-07T19:41:20.807Z,100.00
2019-06-07T19:43:49.222Z,100.00
2019-06-07T19:46:17.658Z,100.00
2019-06-07T19:48:46.052Z,100.00
2019-06-07T19:51:16.001Z,100.00
2019-06-07T19:53:44.290Z,100.00
2019-06-07T19:56:12.634Z,100.00
2019-06-07T19:58:40.923Z,100.00
2019-06-07T20:01:09.216Z,100.00
2019-06-07T20:03:38.109Z,100.00
2019-06-07T20:06:06.437Z,100.00
2019-06-07T20:08:34.993Z,100.00
2019-06-07T20:11:04.744Z,100.00
2019-06-07T20:13:33.371Z,100.00
2019-06-07T20:16:02.934Z,100.00
2019-06-07T20:18:31.460Z,100.00
2019-06-07T20:21:00.675Z,100.00
2019-06-07T20:23:29.225Z,100.00
2019-06-07T20:25:57.568Z,100.00
2019-06-07T20:28:25.948Z,99.80
2019-06-07T20:30:54.229Z,99.47
2019-06-07T20:33:22.529Z,98.55
2019-06-07T20:35:50.840Z,98.05
2019-06-07T20:38:19.126Z,98.18
2019-06-07T20:40:47.604Z,98.27
2019-06-07T20:43:15.909Z,99.15
2019-06-07T20:45:44.271Z,99.63
2019-06-07T20:48:12.572Z,100.00
2019-06-07T20:50:40.882Z,100.00
2019-06-07T20:53:09.634Z,99.82
2019-06-07T20:55:38.049Z,98.98
2019-06-07T20:58:07.275Z,98.70
2019-06-07T21:00:35.792Z,98.83
2019-06-07T21:03:05.335Z,99.07
2019-06-07T21:05:34.024Z,98.96
2019-06-07T21:08:04.177Z,98.78
2019-06-07T21:10:32.564Z,99.15
2019-06-07T21:13:01.971Z,97.91
2019-06-07T21:15:30.362Z,98.60
2019-06-07T21:18:00.168Z,97.96
2019-06-07T21:20:28.555Z,95.62
2019-06-07T21:22:56.850Z,93.89
2019-06-07T21:25:25.182Z,94.39
2019-06-07T21:27:55.543Z,94.53
2019-06-07T21:30:23.919Z,91.89
2019-06-07T21:32:52.431Z,92.12
2019-06-07T21:35:20.719Z,90.66
2019-06-07T21:37:49.026Z,90.07
2019-06-07T21:40:17.338Z,89.78
2019-06-07T21:42:45.614Z,89.45
2019-06-07T21:45:14.798Z,89.00
2019-06-07T21:47:43.091Z,89.51
2019-06-07T21:50:12.756Z,88.01
2019-06-07T21:52:41.309Z,88.41
2019-06-07T21:55:11.536Z,87.90
2019-06-07T21:57:39.849Z,87.95
2019-06-07T22:00:15.026Z,87.88
2019-06-07T22:02:43.307Z,88.57
2019-06-07T22:05:12.240Z,88.65
2019-06-07T22:07:40.583Z,89.09
2019-06-07T22:10:10.067Z,89.20
2019-06-07T22:12:38.439Z,88.46
2019-06-07T22:15:24.306Z,86.69
2019-06-07T22:17:38.309Z,85.83
2019-06-07T22:20:06.850Z,86.08
2019-06-07T22:22:35.193Z,86.09
2019-06-07T22:25:06.939Z,85.38
2019-06-07T22:27:35.450Z,85.00
2019-06-07T22:30:08.282Z,85.08
2019-06-07T22:32:37.090Z,84.53
2019-06-07T22:35:07.176Z,83.85
2019-06-07T22:37:35.753Z,84.42
2019-06-07T22:40:08.312Z,84.10
2019-06-07T22:42:37.216Z,84.40
2019-06-07T22:45:07.870Z,84.21
2019-06-07T22:47:36.635Z,84.17
2019-06-07T22:50:10.695Z,84.68
2019-06-07T22:52:39.385Z,84.90
2019-06-07T22:55:07.817Z,86.04
2019-06-07T22:57:53.913Z,85.57
2019-06-07T23:00:22.732Z,85.40
2019-06-07T23:02:51.025Z,85.00
2019-06-07T23:05:19.324Z,84.49
2019-06-07T23:07:47.637Z,84.62
2019-06-07T23:10:15.919Z,84.37
2019-06-07T23:12:44.383Z,84.33
2019-06-07T23:15:15.419Z,84.31
2019-06-07T23:17:43.844Z,84.36
2019-06-07T23:20:13.707Z,83.58
2019-06-07T23:22:42.138Z,82.52
2019-06-07T23:25:10.442Z,82.90
2019-06-07T23:27:38.876Z,82.52
2019-06-07T23:30:10.654Z,82.46
2019-06-07T23:32:39.100Z,82.62
2019-06-07T23:35:07.488Z,83.19
2019-06-07T23:37:35.788Z,83.07
2019-06-07T23:40:04.409Z,83.77
2019-06-07T23:42:32.957Z,83.41
2019-06-07T23:45:01.301Z,83.24
2019-06-07T23:47:29.583Z,83.68
2019-06-07T23:49:57.908Z,83.70
2019-06-07T23:52:26.196Z,83.18
2019-06-07T23:54:54.487Z,83.06
2019-06-07T23:57:22.799Z,83.52
2019-06-07T23:59:51.078Z,83.66
